Time;durP1;ratioP1;P1;durP2;ratioP2;P2;SDS_P1;SDS_P2;PMS_P1;PMS_P2;Temp;Humidity;BMP_temperature;BMP_pressure;BME280_temperature;BME280_humidity;BME280_pressure;Samples;Min_cycle;Max_cycle;Signal;HPM_P1;HPM_P2
2021/04/20 00:00:56;;;;;;;67.60;28.63;;;9.70;97.30;;;;;;4994735;28;20410;-85
2021/04/20 00:03:21;;;;;;;66.87;30.87;;;9.70;97.30;;;;;;4977732;28;20178;-85
2021/04/20 00:05:47;;;;;;;61.17;28.77;;;9.70;97.30;;;;;;4977792;28;20241;-85
2021/04/20 00:08:13;;;;;;;57.90;29.20;;;9.70;97.30;;;;;;4973042;28;20521;-84
2021/04/20 00:10:38;;;;;;;62.27;27.90;;;9.70;97.30;;;;;;4963293;28;20211;-84
2021/04/20 00:13:04;;;;;;;73.97;32.93;;;9.70;97.30;;;;;;4962735;28;20606;-84
2021/04/20 00:15:33;;;;;;;68.63;31.07;;;9.70;97.30;;;;;;4978637;28;20173;-83
2021/04/20 00:18:01;;;;;;;58.47;29.10;;;9.70;97.30;;;;;;4962862;28;20418;-85
2021/04/20 00:20:29;;;;;;;67.60;29.67;;;9.70;97.30;;;;;;4962281;28;20429;-83
2021/04/20 00:22:55;;;;;;;62.10;29.00;;;9.70;97.30;;;;;;4962405;28;20477;-84
2021/04/20 00:25:21;;;;;;;59.90;28.30;;;9.70;97.30;;;;;;4960622;28;20417;-82
2021/04/20 00:27:46;;;;;;;58.00;27.60;;;9.70;97.30;;;;;;4962645;28;20207;-85
2021/04/20 00:30:12;;;;;;;60.47;28.80;;;9.70;97.30;;;;;;4961461;28;20444;-83
2021/04/20 00:32:39;;;;;;;60.50;29.47;;;9.70;97.30;;;;;;4960423;28;20718;-84
2021/04/20 00:35:06;;;;;;;64.20;29.70;;;9.70;97.30;;;;;;4962815;28;20509;-84
2021/04/20 00:37:32;;;;;;;66.87;31.40;;;9.70;97.30;;;;;;4963009;28;20430;-85
2021/04/20 00:39:57;;;;;;;59.73;28.80;;;9.70;97.30;;;;;;4961547;28;20421;-84
2021/04/20 00:42:23;;;;;;;69.10;29.20;;;9.70;97.30;;;;;;4961247;28;20175;-83
2021/04/20 00:44:49;;;;;;;62.43;28.30;;;9.70;97.30;;;;;;4961713;28;20248;-83
2021/04/20 00:47:14;;;;;;;64.07;30.03;;;9.60;97.30;;;;;;4978695;28;20195;-84
2021/04/20 00:49:40;;;;;;;67.37;29.00;;;9.60;97.30;;;;;;4960984;28;20217;-84
2021/04/20 00:52:06;;;;;;;65.43;29.97;;;9.60;97.30;;;;;;4977687;28;20269;-84
2021/04/20 00:54:32;;;;;;;65.50;29.17;;;9.50;97.30;;;;;;4958119;28;20175;-85
2021/04/20 00:56:58;;;;;;;68.93;31.10;;;9.50;97.30;;;;;;4958414;28;20452;-86
2021/04/20 00:59:24;;;;;;;67.93;32.77;;;9.40;97.30;;;;;;4958198;28;20941;-85
2021/04/20 01:01:50;;;;;;;67.60;31.83;;;9.40;97.30;;;;;;4975947;28;20197;-85
2021/04/20 01:04:17;;;;;;;69.53;31.17;;;9.30;97.30;;;;;;4958936;28;20693;-85
2021/04/20 01:06:45;;;;;;;72.47;32.87;;;9.30;97.30;;;;;;4959579;28;20693;-85
2021/04/20 01:09:11;;;;;;;73.27;32.60;;;9.20;97.30;;;;;;4960475;28;20441;-85
2021/04/20 01:11:39;;;;;;;81.90;34.27;;;9.10;97.30;;;;;;4959631;28;20457;-86
2021/04/20 01:14:05;;;;;;;75.77;32.00;;;9.10;97.30;;;;;;4960001;28;20422;-86
2021/04/20 01:16:33;;;;;;;74.17;32.17;;;9.10;97.30;;;;;;4960216;28;20438;-86
2021/04/20 01:19:01;;;;;;;79.57;33.40;;;9.00;97.30;;;;;;4959805;28;20479;-85
2021/04/20 01:21:27;;;;;;;78.20;34.10;;;9.00;97.30;;;;;;4959412;28;20454;-85
2021/04/20 01:24:00;;;;;;;78.20;35.00;;;9.10;97.30;;;;;;4959880;28;20453;-86
2021/04/20 01:26:28;;;;;;;70.00;31.53;;;9.10;97.30;;;;;;4958736;28;20520;-85
2021/04/20 01:28:56;;;;;;;77.57;33.90;;;9.10;97.30;;;;;;4959169;28;20500;-86
2021/04/20 01:31:21;;;;;;;78.07;33.57;;;9.10;97.30;;;;;;4975693;28;21100;-85
2021/04/20 01:33:50;;;;;;;79.30;33.80;;;9.10;97.30;;;;;;4958498;28;20455;-86
2021/04/20 01:36:20;;;;;;;73.00;32.40;;;9.10;97.30;;;;;;4958521;28;20195;-85
2021/04/20 01:38:47;;;;;;;71.27;32.03;;;9.10;97.30;;;;;;4959241;28;20414;-84
2021/04/20 01:41:13;;;;;;;69.37;31.70;;;9.10;97.30;;;;;;4976442;28;20468;-85
2021/04/20 01:43:40;;;;;;;72.17;31.07;;;9.10;97.30;;;;;;4957942;28;20515;-85
2021/04/20 01:46:06;;;;;;;76.10;32.50;;;9.10;97.30;;;;;;4957180;28;20493;-85
2021/04/20 01:48:33;;;;;;;67.33;32.77;;;9.00;97.30;;;;;;4953998;29;20454;-85
2021/04/20 01:50:59;;;;;;;71.00;31.50;;;9.00;97.30;;;;;;4954558;29;20521;-85
2021/04/20 01:53:25;;;;;;;70.10;31.67;;;9.00;97.30;;;;;;4954243;29;20450;-85
2021/04/20 01:56:06;;;;;;;69.03;30.87;;;9.00;97.30;;;;;;4955569;28;20871;-85
2021/04/20 01:58:34;;;;;;;69.87;31.57;;;9.00;97.30;;;;;;4954223;29;20654;-85
2021/04/20 02:01:05;;;;;;;72.37;32.30;;;8.90;97.30;;;;;;4954416;29;20538;-84
2021/04/20 02:03:32;;;;;;;76.93;30.70;;;8.90;97.30;;;;;;4954334;29;20558;-84
2021/04/20 02:05:58;;;;;;;74.27;32.00;;;8.90;97.30;;;;;;4953590;28;20435;-84
2021/04/20 02:08:24;;;;;;;74.57;32.57;;;8.80;97.30;;;;;;4954086;29;20522;-85
2021/04/20 02:10:54;;;;;;;67.40;30.87;;;8.80;97.30;;;;;;4954689;29;21002;-85
2021/04/20 02:13:20;;;;;;;80.63;34.63;;;8.70;97.30;;;;;;4956818;28;20408;-86
2021/04/20 02:15:46;;;;;;;72.43;32.10;;;8.60;97.30;;;;;;4955262;29;20836;-85
2021/04/20 02:18:13;;;;;;;80.30;32.97;;;8.60;97.30;;;;;;4955709;29;20418;-85
2021/04/20 02:20:40;;;;;;;70.20;32.33;;;8.50;97.30;;;;;;4955156;29;20421;-85
2021/04/20 02:23:06;;;;;;;76.63;32.90;;;8.50;97.30;;;;;;4939185;29;20926;-85
2021/04/20 02:25:33;;;;;;;85.70;33.10;;;8.50;97.30;;;;;;4955885;28;20419;-84
2021/04/20 02:27:59;;;;;;;74.97;32.30;;;8.40;97.30;;;;;;4954878;29;20423;-85
2021/04/20 02:30:25;;;;;;;74.33;31.30;;;8.40;97.30;;;;;;4955367;28;20455;-85
2021/04/20 02:32:53;;;;;;;86.27;36.23;;;8.40;97.30;;;;;;4958617;28;20730;-85
2021/04/20 02:35:19;;;;;;;77.90;33.63;;;8.40;97.30;;;;;;4957999;28;20815;-85
2021/04/20 02:37:46;;;;;;;74.47;34.07;;;8.50;97.30;;;;;;4957879;28;20461;-84
2021/04/20 02:40:22;;;;;;;72.47;30.90;;;8.50;97.30;;;;;;4958243;28;20184;-84
2021/04/20 02:42:49;;;;;;;73.03;31.50;;;8.50;97.30;;;;;;4957762;28;20959;-84
2021/04/20 02:45:16;;;;;;;73.47;30.70;;;8.50;97.30;;;;;;4958069;28;20414;-84
2021/04/20 02:47:42;;;;;;;69.90;31.07;;;8.50;97.30;;;;;;4957103;28;20430;-85
2021/04/20 02:50:30;;;;;;;76.63;30.93;;;8.40;97.30;;;;;;4956839;28;20422;-84
2021/04/20 02:53:05;;;;;;;74.03;32.57;;;8.40;97.30;;;;;;4956737;28;20515;-84
2021/04/20 02:55:33;;;;;;;75.33;31.73;;;8.40;97.30;;;;;;4974161;28;20406;-84
2021/04/20 02:58:02;;;;;;;73.57;32.60;;;8.40;97.30;;;;;;4956491;28;20418;-84
2021/04/20 03:00:28;;;;;;;74.97;34.13;;;8.40;97.30;;;;;;4956534;28;20446;-84
2021/04/20 03:02:59;;;;;;;70.97;30.40;;;8.40;97.30;;;;;;4957540;28;21017;-84
2021/04/20 03:05:27;;;;;;;82.20;34.17;;;8.40;97.30;;;;;;4956547;28;20428;-85
2021/04/20 03:07:53;;;;;;;71.80;31.00;;;8.40;97.30;;;;;;4956997;28;20469;-85
2021/04/20 03:10:19;;;;;;;77.40;32.20;;;8.40;97.30;;;;;;4956335;28;20560;-85
2021/04/20 03:12:46;;;;;;;82.97;32.87;;;8.40;97.30;;;;;;4958366;28;20449;-85
2021/04/20 03:15:14;;;;;;;73.77;31.10;;;8.40;97.30;;;;;;4957824;28;21021;-86
2021/04/20 03:17:41;;;;;;;70.20;31.77;;;8.50;97.30;;;;;;4957197;28;20545;-86
2021/04/20 03:20:09;;;;;;;74.20;32.80;;;8.50;97.30;;;;;;4975297;28;20595;-84
2021/04/20 03:22:35;;;;;;;73.27;30.57;;;8.50;97.30;;;;;;4958164;28;20540;-85
2021/04/20 03:25:08;;;;;;;67.07;30.00;;;8.60;97.30;;;;;;4958091;28;20418;-84
2021/04/20 03:27:42;;;;;;;72.20;32.10;;;8.60;97.30;;;;;;4957438;28;20438;-83
2021/04/20 03:30:08;;;;;;;72.47;30.10;;;8.60;97.30;;;;;;4957252;28;20463;-85
2021/04/20 03:32:36;;;;;;;80.90;32.60;;;8.50;97.30;;;;;;4957235;28;20473;-84
2021/04/20 03:35:18;;;;;;;66.17;28.17;;;8.50;97.30;;;;;;4957135;28;20425;-85
2021/04/20 03:37:51;;;;;;;72.83;30.10;;;8.50;97.30;;;;;;4956984;28;20429;-85
2021/04/20 03:40:19;;;;;;;69.03;30.60;;;8.50;97.30;;;;;;4957069;28;20445;-85
2021/04/20 03:42:51;;;;;;;70.67;30.57;;;8.50;97.30;;;;;;4957114;28;20410;-84
2021/04/20 03:48:12;;;;;;;82.20;31.50;;;8.50;97.30;;;;;;4968813;28;20521;-85
2021/04/20 03:50:41;;;;;;;72.67;31.63;;;8.40;97.30;;;;;;4955554;28;21014;-86
2021/04/20 03:53:13;;;;;;;69.43;29.50;;;8.40;97.30;;;;;;4956658;28;20418;-85
2021/04/20 03:55:40;;;;;;;73.80;29.67;;;8.40;97.30;;;;;;4956538;28;20445;-85
2021/04/20 03:58:06;;;;;;;71.27;31.10;;;8.50;97.30;;;;;;4974061;28;20410;-85
2021/04/20 04:00:34;;;;;;;70.43;30.67;;;8.50;97.30;;;;;;4956726;28;20422;-85
2021/04/20 04:03:04;;;;;;;65.37;27.80;;;8.40;97.30;;;;;;4956587;28;20426;-85
2021/04/20 04:05:31;;;;;;;73.80;30.50;;;8.40;97.30;;;;;;4957208;28;20422;-85
2021/04/20 04:07:59;;;;;;;68.17;30.50;;;8.40;97.30;;;;;;4956715;28;20453;-85
2021/04/20 04:10:28;;;;;;;71.83;29.93;;;8.40;97.30;;;;;;4956643;28;20549;-86
2021/04/20 04:12:57;;;;;;;75.63;30.90;;;8.40;97.30;;;;;;4956563;28;20961;-86
2021/04/20 04:15:23;;;;;;;67.90;29.30;;;8.40;97.30;;;;;;4956850;28;20414;-85
2021/04/20 04:17:51;;;;;;;70.60;28.83;;;8.40;97.30;;;;;;4974909;28;20438;-85
2021/04/20 04:20:20;;;;;;;71.77;29.87;;;8.40;97.30;;;;;;4958697;28;20802;-85
2021/04/20 04:22:54;;;;;;;67.20;29.80;;;8.50;97.30;;;;;;4958300;28;20513;-85
2021/04/20 04:25:25;;;;;;;67.77;30.60;;;8.50;97.30;;;;;;4975666;28;20901;-85
2021/04/20 04:27:53;;;;;;;74.67;29.97;;;8.60;97.30;;;;;;4958322;28;20410;-85
2021/04/20 04:30:21;;;;;;;56.73;27.10;;;8.60;97.30;;;;;;4960384;28;20409;-85
2021/04/20 04:32:47;;;;;;;67.67;28.77;;;8.60;97.30;;;;;;4961643;28;20445;-86
2021/04/20 04:35:13;;;;;;;67.13;30.77;;;8.60;97.30;;;;;;4961726;28;20406;-85
2021/04/20 04:37:41;;;;;;;68.30;30.37;;;8.60;97.30;;;;;;4960447;28;20430;-86
2021/04/20 04:40:08;;;;;;;63.70;29.17;;;8.60;97.30;;;;;;4960479;28;20421;-85
2021/04/20 04:42:35;;;;;;;60.67;29.53;;;8.60;97.30;;;;;;4960824;28;20421;-86
2021/04/20 04:45:04;;;;;;;63.67;29.80;;;8.60;97.30;;;;;;4960595;28;20493;-86
2021/04/20 04:47:30;;;;;;;61.30;27.43;;;8.60;97.30;;;;;;4960390;28;20483;-85
2021/04/20 04:50:00;;;;;;;68.13;30.30;;;8.60;97.30;;;;;;4960585;28;20440;-86
2021/04/20 04:52:27;;;;;;;58.60;27.47;;;8.60;97.30;;;;;;4960257;28;20493;-85
2021/04/20 04:54:53;;;;;;;57.00;25.97;;;8.60;97.30;;;;;;4960924;28;20417;-85
2021/04/20 04:57:20;;;;;;;66.40;28.77;;;8.50;97.30;;;;;;4959495;28;20866;-86
2021/04/20 04:59:47;;;;;;;64.30;28.00;;;8.50;97.30;;;;;;4959332;28;20217;-85
2021/04/20 05:02:13;;;;;;;57.53;26.27;;;8.50;97.30;;;;;;4958077;28;20513;-86
2021/04/20 05:04:38;;;;;;;63.77;28.20;;;8.50;97.30;;;;;;4959259;28;20457;-85
2021/04/20 05:07:04;;;;;;;63.90;27.13;;;8.50;97.30;;;;;;4958980;28;20905;-85
2021/04/20 05:09:30;;;;;;;58.77;25.87;;;8.50;97.30;;;;;;4959130;28;20873;-85
2021/04/20 05:11:55;;;;;;;53.30;24.57;;;8.50;97.30;;;;;;4959586;28;20205;-86
2021/04/20 05:14:22;;;;;;;58.70;25.80;;;8.50;97.30;;;;;;4958863;28;20649;-85
2021/04/20 05:16:51;;;;;;;57.90;25.10;;;8.50;97.30;;;;;;4986985;23;20238;-78
2021/04/20 05:19:31;;;;;;;56.70;24.07;;;8.60;97.30;;;;;;4965508;28;20473;-78
2021/04/20 05:21:59;;;;;;;59.77;24.03;;;8.60;97.30;;;;;;4964312;28;20445;-77
2021/04/20 05:24:25;;;;;;;50.20;21.90;;;8.60;97.30;;;;;;4960148;28;20418;-78
2021/04/20 05:26:51;;;;;;;56.10;23.10;;;8.60;97.30;;;;;;4960387;28;20421;-78
2021/04/20 05:29:17;;;;;;;52.77;22.90;;;8.60;97.30;;;;;;4959023;28;20422;-79
2021/04/20 05:31:43;;;;;;;49.77;22.47;;;8.60;97.30;;;;;;4962976;28;20472;-79
2021/04/20 05:34:09;;;;;;;45.80;21.47;;;8.60;97.30;;;;;;4964097;28;20535;-79
2021/04/20 05:36:36;;;;;;;52.50;22.20;;;8.60;97.30;;;;;;4960073;28;20414;-79
2021/04/20 05:39:08;;;;;;;50.20;23.60;;;8.70;97.30;;;;;;4959652;28;20182;-79
2021/04/20 05:41:36;;;;;;;44.90;22.03;;;8.70;97.30;;;;;;4957585;28;20453;-79
2021/04/20 05:44:05;;;;;;;54.17;21.53;;;8.70;97.30;;;;;;4959245;28;20941;-78
2021/04/20 05:46:34;;;;;;;52.30;22.90;;;8.70;97.30;;;;;;4976141;28;20425;-79
2021/04/20 05:49:01;;;;;;;45.30;21.37;;;8.70;97.30;;;;;;4957881;28;20434;-78
2021/04/20 05:51:27;;;;;;;67.60;24.13;;;8.70;97.30;;;;;;4958747;28;20469;-79
2021/04/20 05:53:53;;;;;;;51.20;22.40;;;8.70;97.30;;;;;;4958819;28;20780;-79
2021/04/20 05:56:22;;;;;;;46.23;21.80;;;8.70;97.30;;;;;;4958175;28;20640;-80
2021/04/20 05:58:55;;;;;;;50.60;21.40;;;8.70;97.30;;;;;;4963996;28;20432;-82
2021/04/20 06:01:23;;;;;;;51.30;22.13;;;8.80;97.30;;;;;;4964104;28;20457;-81
2021/04/20 06:03:49;;;;;;;41.53;19.80;;;8.80;97.30;;;;;;4962171;28;20418;-80
2021/04/20 06:06:18;;;;;;;41.67;21.03;;;8.80;97.30;;;;;;4963777;28;20445;-80
2021/04/20 06:08:44;;;;;;;46.83;20.60;;;8.80;97.30;;;;;;4959499;28;20445;-79
2021/04/20 06:11:11;;;;;;;37.83;18.00;;;8.80;97.30;;;;;;4976920;28;20499;-80
2021/04/20 06:13:37;;;;;;;35.50;18.03;;;8.90;97.30;;;;;;4959265;28;20441;-81
2021/04/20 06:16:04;;;;;;;37.23;18.53;;;8.90;97.30;;;;;;4958810;28;20500;-79
2021/04/20 06:18:31;;;;;;;45.10;20.17;;;9.00;97.30;;;;;;4956207;28;20406;-79
2021/04/20 06:20:59;;;;;;;43.30;20.03;;;9.00;97.30;;;;;;4955670;28;20446;-79
2021/04/20 06:23:25;;;;;;;41.77;19.67;;;9.00;97.30;;;;;;4956539;28;20523;-79
2021/04/20 06:25:55;;;;;;;43.40;19.50;;;9.10;97.30;;;;;;4956118;28;20430;-78
2021/04/20 06:28:21;;;;;;;38.20;18.57;;;9.10;97.30;;;;;;4955690;28;20446;-78
2021/04/20 06:30:47;;;;;;;43.30;19.60;;;9.10;97.30;;;;;;4957425;28;20497;-79
2021/04/20 06:33:15;;;;;;;39.60;20.00;;;9.20;97.30;;;;;;4965111;28;20725;-79
2021/04/20 06:35:41;;;;;;;44.83;19.90;;;9.40;97.30;;;;;;4964608;28;20226;-80
2021/04/20 06:38:12;;;;;;;40.53;18.73;;;9.50;97.30;;;;;;4963443;28;20426;-79
2021/04/20 06:40:45;;;;;;;36.87;17.33;;;9.60;97.30;;;;;;4958119;28;20444;-81
2021/04/20 06:43:13;;;;;;;37.87;16.67;;;9.70;97.30;;;;;;4959429;28;20429;-80
2021/04/20 06:45:47;;;;;;;34.70;14.80;;;9.60;97.30;;;;;;4958149;28;20418;-79
2021/04/20 06:48:40;;;;;;;40.20;17.80;;;9.60;97.30;;;;;;4943990;29;20989;-81
2021/04/20 06:51:19;;;;;;;31.20;15.23;;;9.70;97.30;;;;;;4937537;29;20553;-79
2021/04/20 06:53:48;;;;;;;28.17;14.60;;;9.70;97.30;;;;;;4937516;29;20522;-79
2021/04/20 06:56:22;;;;;;;34.67;14.80;;;9.90;97.30;;;;;;4937576;29;20478;-79
2021/04/20 06:59:01;;;;;;;37.60;14.60;;;9.90;97.30;;;;;;4937107;29;20954;-79
2021/04/20 07:01:35;;;;;;;29.33;14.63;;;9.90;97.30;;;;;;4937246;29;20541;-79
2021/04/20 07:04:10;;;;;;;25.43;13.87;;;9.90;97.30;;;;;;4936713;29;20799;-80
2021/04/20 07:06:44;;;;;;;30.27;14.63;;;9.90;97.30;;;;;;4953810;29;20502;-80
2021/04/20 07:09:25;;;;;;;25.63;13.93;;;10.00;97.30;;;;;;4936822;29;20433;-79
2021/04/20 07:11:53;;;;;;;29.57;14.13;;;10.00;97.30;;;;;;4936368;29;20462;-79
2021/04/20 07:14:36;;;;;;;33.93;16.73;;;10.10;97.30;;;;;;4936394;29;20474;-79
2021/04/20 07:17:02;;;;;;;33.07;14.80;;;10.10;97.30;;;;;;4936543;29;20474;-79
2021/04/20 07:19:38;;;;;;;32.80;15.20;;;10.20;97.30;;;;;;4936351;29;20593;-79
2021/04/20 07:22:46;;;;;;;31.27;14.53;;;10.30;97.30;;;;;;4937767;28;20798;-79
2021/04/20 07:25:58;;;;;;;25.80;13.63;;;10.40;97.30;;;;;;4949886;28;20414;-79
2021/04/20 07:28:52;;;;;;;28.50;13.13;;;10.50;97.30;;;;;;4955224;28;20948;-80
2021/04/20 07:31:42;;;;;;;28.00;14.27;;;10.80;97.30;;;;;;4963810;28;20812;-79
2021/04/20 07:34:30;;;;;;;26.60;12.20;;;11.00;97.30;;;;;;4975702;28;20847;-79
2021/04/20 07:37:17;;;;;;;23.23;12.10;;;11.20;97.30;;;;;;4974081;28;20419;-78
2021/04/20 07:39:53;;;;;;;26.47;12.40;;;11.30;97.30;;;;;;4975080;28;21019;-80
2021/04/20 07:42:26;;;;;;;43.07;12.60;;;11.50;97.30;;;;;;4992891;28;20985;-79
2021/04/20 07:45:15;;;;;;;35.13;14.50;;;11.60;97.30;;;;;;4990529;28;20406;-79
2021/04/20 07:48:04;;;;;;;26.90;12.80;;;11.50;97.30;;;;;;4968896;28;20975;-79
2021/04/20 07:50:35;;;;;;;24.53;11.60;;;11.40;97.30;;;;;;4973309;28;20456;-77
2021/04/20 07:53:30;;;;;;;27.47;11.77;;;11.60;97.30;;;;;;4957992;28;20897;-79
2021/04/20 07:56:07;;;;;;;27.73;12.40;;;11.80;97.30;;;;;;4957638;28;20414;-77
2021/04/20 07:58:42;;;;;;;26.10;12.20;;;12.10;97.30;;;;;;4974579;28;20440;-79
2021/04/20 08:01:46;;;;;;;22.87;11.60;;;12.30;97.30;;;;;;4972607;28;20433;-79
2021/04/20 08:04:26;;;;;;;23.27;10.67;;;12.50;97.30;;;;;;4974099;28;20932;-78
2021/04/20 08:06:59;;;;;;;22.83;10.00;;;12.60;97.30;;;;;;4977892;28;20764;-79
2021/04/20 08:09:28;;;;;;;20.80;11.43;;;12.60;97.30;;;;;;4978590;28;20440;-79
2021/04/20 08:12:01;;;;;;;20.80;10.30;;;12.50;97.30;;;;;;4951439;28;20470;-79
2021/04/20 08:14:47;;;;;;;29.10;11.70;;;12.30;97.30;;;;;;4943668;28;20422;-79
2021/04/20 08:17:40;;;;;;;21.20;12.03;;;12.40;97.30;;;;;;4958973;28;20965;-79
2021/04/20 08:20:10;;;;;;;19.10;9.53;;;12.60;97.30;;;;;;4959432;28;20944;-79
2021/04/20 08:22:37;;;;;;;23.20;9.63;;;12.70;97.30;;;;;;4974757;28;20445;-79
2021/04/20 08:25:10;;;;;;;18.53;9.30;;;12.90;97.30;;;;;;4956859;28;20442;-79
2021/04/20 08:27:59;;;;;;;29.93;10.30;;;13.10;97.30;;;;;;4959161;28;20418;-79
2021/04/20 08:30:44;;;;;;;21.40;9.83;;;13.40;96.80;;;;;;4957306;28;20464;-78
2021/04/20 08:33:17;;;;;;;18.37;10.00;;;13.40;96.70;;;;;;4957842;28;20995;-79
2021/04/20 08:35:47;;;;;;;23.47;11.33;;;13.40;96.90;;;;;;4958601;28;20425;-78
2021/04/20 08:38:41;;;;;;;23.03;10.00;;;13.30;95.80;;;;;;4957603;28;20418;-78
2021/04/20 08:41:16;;;;;;;19.53;10.13;;;13.10;95.80;;;;;;4955553;28;20970;-79
2021/04/20 08:44:03;;;;;;;19.70;8.50;;;13.10;96.30;;;;;;4950191;29;20457;-79
2021/04/20 08:46:44;;;;;;;20.20;9.60;;;13.20;96.00;;;;;;4949573;29;20541;-79
2021/04/20 08:49:24;;;;;;;19.10;10.87;;;13.40;95.80;;;;;;4961396;29;20497;-80
2021/04/20 08:52:05;;;;;;;25.70;11.27;;;13.60;96.90;;;;;;4940213;29;20467;-79
2021/04/20 08:54:55;;;;;;;18.63;10.63;;;13.80;96.00;;;;;;4940530;29;20426;-79
2021/04/20 08:57:41;;;;;;;15.80;10.07;;;13.80;95.00;;;;;;4943099;29;20829;-78
2021/04/20 09:00:36;;;;;;;20.10;10.00;;;13.80;95.10;;;;;;4948407;29;20407;-79
2021/04/20 09:03:13;;;;;;;17.90;9.90;;;13.80;94.10;;;;;;4960361;29;20414;-79
2021/04/20 09:06:00;;;;;;;23.07;10.70;;;13.90;94.40;;;;;;4939228;29;20422;-80
2021/04/20 09:08:29;;;;;;;20.77;10.00;;;13.90;94.00;;;;;;4941223;29;20429;-79
2021/04/20 09:10:57;;;;;;;22.13;10.10;;;13.90;93.90;;;;;;4941694;29;20846;-79
2021/04/20 09:13:27;;;;;;;21.00;10.07;;;13.90;93.90;;;;;;4938479;29;20423;-78
2021/04/20 09:15:57;;;;;;;19.67;9.47;;;14.10;93.30;;;;;;4937922;29;20541;-79
2021/04/20 09:18:34;;;;;;;22.67;9.73;;;14.10;92.90;;;;;;4940062;29;20770;-78
2021/04/20 09:21:05;;;;;;;15.60;8.27;;;14.30;92.00;;;;;;4942406;29;20447;-82
2021/04/20 09:24:09;;;;;;;22.93;9.10;;;14.30;91.60;;;;;;4942460;29;20522;-78
2021/04/20 09:26:53;;;;;;;23.47;8.93;;;14.20;91.60;;;;;;4938369;29;20418;-79
2021/04/20 09:29:29;;;;;;;19.33;9.17;;;14.30;91.70;;;;;;4940579;29;20415;-79
2021/04/20 09:31:58;;;;;;;17.70;7.97;;;14.40;90.60;;;;;;4938721;29;20549;-78
2021/04/20 09:34:38;;;;;;;18.60;7.83;;;14.40;89.90;;;;;;4942382;29;20419;-80
2021/04/20 09:37:06;;;;;;;17.63;9.10;;;14.50;89.30;;;;;;4947031;29;20423;-80
2021/04/20 09:39:43;;;;;;;16.60;8.23;;;14.60;91.40;;;;;;4943060;29;20946;-79
2021/04/20 09:42:11;;;;;;;21.67;8.80;;;14.70;90.10;;;;;;4955782;28;20980;-79
2021/04/20 09:44:59;;;;;;;14.63;8.30;;;14.80;89.50;;;;;;4945523;29;20422;-80
2021/04/20 09:47:55;;;;;;;18.43;8.43;;;15.10;89.50;;;;;;4963122;23;20537;-73
2021/04/20 09:50:30;;;;;;;17.23;8.33;;;15.10;88.90;;;;;;4956465;28;20979;-73
2021/04/20 09:53:32;;;;;;;17.03;8.60;;;15.30;87.40;;;;;;4955841;28;20426;-73
2021/04/20 09:56:03;;;;;;;17.60;8.90;;;15.30;87.60;;;;;;4956041;28;20406;-72
2021/04/20 09:58:31;;;;;;;15.40;7.07;;;15.40;87.20;;;;;;4956474;28;20936;-74
2021/04/20 10:01:04;;;;;;;16.53;6.93;;;15.50;86.60;;;;;;4972937;28;20440;-73
2021/04/20 10:04:06;;;;;;;18.20;6.80;;;15.50;86.10;;;;;;4955986;28;20446;-73
2021/04/20 10:07:10;;;;;;;11.20;6.77;;;15.40;85.60;;;;;;4957942;28;20410;-73
2021/04/20 10:09:45;;;;;;;11.83;6.47;;;15.60;85.60;;;;;;4955100;28;20464;-74
2021/04/20 10:12:16;;;;;;;12.80;7.60;;;15.70;84.50;;;;;;4956032;28;20474;-73
2021/04/20 10:14:48;;;;;;;13.00;7.80;;;15.70;83.70;;;;;;4955946;28;20548;-74
2021/04/20 10:17:29;;;;;;;17.33;7.17;;;15.90;85.30;;;;;;4973014;28;20421;-75
2021/04/20 10:20:04;;;;;;;18.10;7.20;;;16.00;83.20;;;;;;4972977;28;20413;-74
2021/04/20 10:22:59;;;;;;;13.67;5.90;;;15.80;83.10;;;;;;4955611;28;20445;-74
2021/04/20 10:25:39;;;;;;;11.73;5.97;;;15.80;82.60;;;;;;4955638;28;20414;-74
2021/04/20 10:28:29;;;;;;;16.00;6.73;;;16.00;81.60;;;;;;4955136;28;20425;-74
2021/04/20 10:31:01;;;;;;;13.13;7.67;;;16.00;81.40;;;;;;4955221;28;20465;-74
2021/04/20 10:33:28;;;;;;;15.03;8.07;;;16.30;82.50;;;;;;4955381;28;20418;-74
2021/04/20 10:35:59;;;;;;;18.77;8.37;;;16.30;82.10;;;;;;4955105;28;20424;-74
2021/04/20 10:38:31;;;;;;;13.60;8.53;;;16.50;83.30;;;;;;4971778;28;20422;-74
2021/04/20 10:40:57;;;;;;;17.60;9.27;;;16.60;82.90;;;;;;4955098;28;20438;-74
2021/04/20 10:43:25;;;;;;;21.50;9.37;;;16.70;84.10;;;;;;4972271;28;20823;-74
2021/04/20 10:45:53;;;;;;;19.37;7.90;;;16.80;83.90;;;;;;4954763;28;20178;-74
2021/04/20 10:48:24;;;;;;;22.53;8.87;;;16.70;83.30;;;;;;4953911;28;20851;-75
2021/04/20 10:50:52;;;;;;;14.40;8.97;;;16.80;84.60;;;;;;4953530;28;20497;-74
2021/04/20 10:53:25;;;;;;;24.07;9.30;;;16.80;83.40;;;;;;4970913;28;20410;-73
2021/04/20 10:56:13;;;;;;;20.23;6.90;;;17.00;84.50;;;;;;4971494;28;20398;-74
2021/04/20 10:58:54;;;;;;;15.03;8.20;;;17.20;83.80;;;;;;4971204;28;20996;-75
2021/04/20 11:01:23;;;;;;;17.70;8.70;;;17.30;83.20;;;;;;4956036;28;20446;-73
2021/04/20 11:03:52;;;;;;;21.23;10.27;;;17.20;82.60;;;;;;4972037;28;20503;-74
2021/04/20 11:06:36;;;;;;;18.33;8.13;;;17.20;82.30;;;;;;4955636;28;20426;-73
2021/04/20 11:09:02;;;;;;;11.37;7.70;;;17.30;83.60;;;;;;4972053;28;20418;-75
2021/04/20 11:11:28;;;;;;;15.53;9.43;;;17.30;83.10;;;;;;4971661;28;20513;-73
2021/04/20 11:13:54;;;;;;;13.90;8.87;;;17.30;82.40;;;;;;4971094;28;20178;-73
2021/04/20 11:16:34;;;;;;;18.60;9.10;;;17.30;81.80;;;;;;4971435;28;20416;-74
2021/04/20 11:19:09;;;;;;;14.37;8.00;;;17.40;80.50;;;;;;4971481;28;20178;-73
2021/04/20 11:21:38;;;;;;;17.57;8.80;;;17.40;81.20;;;;;;4972572;28;20449;-74
2021/04/20 11:24:35;;;;;;;16.60;8.33;;;17.50;82.20;;;;;;4971269;28;20425;-74
2021/04/20 11:27:09;;;;;;;17.37;8.37;;;17.70;81.50;;;;;;4953127;28;20483;-73
2021/04/20 11:29:49;;;;;;;20.73;8.63;;;17.80;80.60;;;;;;4972480;28;20394;-75
2021/04/20 11:32:23;;;;;;;15.20;8.20;;;18.00;80.30;;;;;;4954927;28;20841;-73
2021/04/20 11:34:54;;;;;;;16.57;9.07;;;18.00;80.40;;;;;;4955109;28;20501;-73
2021/04/20 11:37:23;;;;;;;14.83;9.00;;;18.00;79.70;;;;;;4972033;28;20458;-73
2021/04/20 11:40:03;;;;;;;16.70;10.00;;;18.20;81.10;;;;;;4973930;28;20939;-73
2021/04/20 11:42:40;;;;;;;16.43;8.73;;;18.40;81.70;;;;;;4974666;28;20445;-74
2021/04/20 11:45:26;;;;;;;17.10;8.40;;;18.50;80.20;;;;;;4957993;28;20428;-74
2021/04/20 11:48:05;;;;;;;18.53;9.57;;;18.40;79.70;;;;;;4974493;28;20489;-74
2021/04/20 11:50:35;;;;;;;23.40;9.67;;;18.10;79.40;;;;;;4958248;28;20422;-74
2021/04/20 11:53:06;;;;;;;15.73;9.03;;;18.10;80.20;;;;;;4958148;28;20421;-74
2021/04/20 11:55:39;;;;;;;20.00;9.67;;;18.30;79.40;;;;;;4975609;28;20480;-74
2021/04/20 11:58:40;;;;;;;20.43;8.50;;;18.30;78.70;;;;;;4958284;28;20424;-73
2021/04/20 12:01:13;;;;;;;15.10;8.73;;;18.50;78.90;;;;;;4959246;28;20438;-74
2021/04/20 12:03:55;;;;;;;19.93;10.57;;;18.70;78.70;;;;;;4958327;28;20406;-73
2021/04/20 12:06:22;;;;;;;21.63;9.50;;;18.80;78.50;;;;;;4975875;28;20884;-73
2021/04/20 12:08:55;;;;;;;16.60;9.00;;;19.00;78.20;;;;;;4958087;28;20489;-74
2021/04/20 12:11:29;;;;;;;15.00;9.13;;;19.00;75.90;;;;;;4957407;28;20468;-73
2021/04/20 12:13:56;;;;;;;18.33;8.70;;;18.90;76.90;;;;;;4975570;28;20913;-73
2021/04/20 12:16:23;;;;;;;14.90;8.13;;;19.00;77.10;;;;;;4975338;28;20889;-73
2021/04/20 12:19:15;;;;;;;16.67;9.03;;;19.20;78.30;;;;;;4975024;28;20409;-74
2021/04/20 12:21:45;;;;;;;16.70;9.03;;;19.30;75.90;;;;;;4957582;28;20441;-73
2021/04/20 12:24:16;;;;;;;13.67;8.90;;;19.40;76.60;;;;;;4957494;28;20425;-73
2021/04/20 12:26:43;;;;;;;20.50;7.83;;;19.60;76.10;;;;;;4957319;28;20410;-74
2021/04/20 12:29:14;;;;;;;16.90;9.10;;;19.70;75.40;;;;;;4946905;28;20426;-74
2021/04/20 12:31:41;;;;;;;16.00;9.10;;;19.70;76.40;;;;;;4962331;28;20593;-73
2021/04/20 12:34:14;;;;;;;16.47;8.77;;;19.70;76.50;;;;;;4947551;28;20414;-73
2021/04/20 12:37:05;;;;;;;17.53;9.43;;;19.80;76.80;;;;;;4946164;28;20464;-73
2021/04/20 12:39:54;;;;;;;15.93;9.97;;;20.00;79.00;;;;;;4948265;28;20418;-73
2021/04/20 12:42:26;;;;;;;18.20;9.97;;;19.90;75.10;;;;;;4949032;28;20434;-74
2021/04/20 12:44:53;;;;;;;27.03;10.33;;;19.80;77.60;;;;;;4945210;28;20425;-74
2021/04/20 12:47:30;;;;;;;16.17;10.00;;;19.70;77.60;;;;;;4948144;28;20512;-74
2021/04/20 12:49:58;;;;;;;20.03;9.47;;;19.90;78.20;;;;;;4946732;28;20510;-74
2021/04/20 12:52:26;;;;;;;19.93;9.23;;;20.10;77.50;;;;;;4946544;28;20467;-75
2021/04/20 12:55:02;;;;;;;20.00;9.50;;;20.00;77.20;;;;;;4946019;28;20421;-74
2021/04/20 12:57:31;;;;;;;20.13;8.47;;;19.90;75.90;;;;;;4945600;28;20418;-74
2021/04/20 13:00:09;;;;;;;20.33;8.80;;;19.90;76.50;;;;;;4959600;28;20422;-74
2021/04/20 13:02:39;;;;;;;16.40;9.00;;;19.90;77.40;;;;;;4954998;29;20458;-74
2021/04/20 13:05:06;;;;;;;21.10;10.00;;;19.90;75.10;;;;;;4964818;28;20418;-75